sensor_id;sensor_type;location;lat;lon;timestamp;pressure;altitude;pressure_sealevel;temperature;humidity
6433;BME280;3249;42.690;23.260;2022-07-06T00:01:31;94379.75;;;19.34;100.00
6433;BME280;3249;42.690;23.260;2022-07-06T00:03:57;94382.88;;;19.41;100.00
6433;BME280;3249;42.690;23.260;2022-07-06T00:06:23;94378.22;;;19.28;100.00
6433;BME280;3249;42.690;23.260;2022-07-06T00:08:48;94385.00;;;19.19;100.00
6433;BME280;3249;42.690;23.260;2022-07-06T00:11:14;94380.13;;;18.98;100.00
6433;BME280;3249;42.690;23.260;2022-07-06T00:13:39;94374.13;;;18.97;100.00
6433;BME280;3249;42.690;23.260;2022-07-06T00:16:05;94378.00;;;19.00;100.00
6433;BME280;3249;42.690;23.260;2022-07-06T00:18:30;94380.66;;;18.95;100.00
6433;BME280;3249;42.690;23.260;2022-07-06T00:20:56;94387.16;;;18.97;100.00
6433;BME280;3249;42.690;23.260;2022-07-06T00:23:22;94393.34;;;19.21;100.00
6433;BME280;3249;42.690;23.260;2022-07-06T00:25:47;94393.63;;;19.20;100.00
6433;BME280;3249;42.690;23.260;2022-07-06T00:28:14;94400.91;;;19.23;100.00
6433;BME280;3249;42.690;23.260;2022-07-06T00:30:39;94408.75;;;19.23;100.00
6433;BME280;3249;42.690;23.260;2022-07-06T00:33:05;94415.56;;;19.24;100.00
6433;BME280;3249;42.690;23.260;2022-07-06T00:35:30;94411.91;;;19.30;100.00
6433;BME280;3249;42.690;23.260;2022-07-06T00:37:56;94418.16;;;19.29;100.00
6433;BME280;3249;42.690;23.260;2022-07-06T00:40:21;94416.84;;;19.26;100.00
6433;BME280;3249;42.690;23.260;2022-07-06T00:42:48;94414.25;;;19.26;100.00
6433;BME280;3249;42.690;23.260;2022-07-06T00:45:15;94419.72;;;19.30;100.00
6433;BME280;3249;42.690;23.260;2022-07-06T00:47:41;94411.38;;;19.28;100.00
6433;BME280;3249;42.690;23.260;2022-07-06T00:50:09;94414.78;;;19.13;100.00
6433;BME280;3249;42.690;23.260;2022-07-06T00:52:51;94398.38;;;19.03;100.00
6433;BME280;3249;42.690;23.260;2022-07-06T00:55:22;94387.19;;;18.92;100.00
6433;BME280;3249;42.690;23.260;2022-07-06T00:57:48;94381.72;;;18.79;100.00
6433;BME280;3249;42.690;23.260;2022-07-06T01:00:15;94374.41;;;18.81;100.00
6433;BME280;3249;42.690;23.260;2022-07-06T01:02:42;94349.84;;;18.92;100.00
6433;BME280;3249;42.690;23.260;2022-07-06T01:05:09;94362.34;;;19.00;100.00
6433;BME280;3249;42.690;23.260;2022-07-06T01:07:36;94368.09;;;18.97;100.00
6433;BME280;3249;42.690;23.260;2022-07-06T01:10:05;94348.03;;;18.87;100.00
6433;BME280;3249;42.690;23.260;2022-07-06T01:12:32;94364.75;;;18.71;100.00
6433;BME280;3249;42.690;23.260;2022-07-06T01:14:59;94349.69;;;18.53;100.00
6433;BME280;3249;42.690;23.260;2022-07-06T01:17:25;94341.84;;;18.53;100.00
6433;BME280;3249;42.690;23.260;2022-07-06T01:19:51;94348.88;;;18.78;100.00
6433;BME280;3249;42.690;23.260;2022-07-06T01:22:16;94351.47;;;18.83;100.00
6433;BME280;3249;42.690;23.260;2022-07-06T01:24:42;94360.81;;;18.89;100.00
6433;BME280;3249;42.690;23.260;2022-07-06T01:27:07;94362.91;;;19.02;100.00
6433;BME280;3249;42.690;23.260;2022-07-06T01:29:34;94355.34;;;18.90;100.00
6433;BME280;3249;42.690;23.260;2022-07-06T01:31:59;94355.59;;;18.99;100.00
6433;BME280;3249;42.690;23.260;2022-07-06T01:34:25;94345.69;;;18.91;100.00
6433;BME280;3249;42.690;23.260;2022-07-06T01:36:51;94358.16;;;19.04;100.00
6433;BME280;3249;42.690;23.260;2022-07-06T01:39:16;94364.19;;;19.04;100.00
6433;BME280;3249;42.690;23.260;2022-07-06T01:41:42;94366.03;;;18.99;100.00
6433;BME280;3249;42.690;23.260;2022-07-06T01:44:07;94344.41;;;18.78;100.00
6433;BME280;3249;42.690;23.260;2022-07-06T01:46:33;94366.06;;;18.84;100.00
6433;BME280;3249;42.690;23.260;2022-07-06T01:48:59;94363.97;;;18.81;100.00
6433;BME280;3249;42.690;23.260;2022-07-06T01:51:25;94358.78;;;18.71;100.00
6433;BME280;3249;42.690;23.260;2022-07-06T01:53:51;94358.28;;;18.59;100.00
6433;BME280;3249;42.690;23.260;2022-07-06T01:56:17;94367.66;;;18.60;100.00
6433;BME280;3249;42.690;23.260;2022-07-06T01:58:45;94369.50;;;18.64;100.00
6433;BME280;3249;42.690;23.260;2022-07-06T02:01:13;94373.91;;;18.64;100.00
6433;BME280;3249;42.690;23.260;2022-07-06T02:03:39;94354.63;;;18.60;100.00
6433;BME280;3249;42.690;23.260;2022-07-06T02:06:06;94369.22;;;18.66;100.00
6433;BME280;3249;42.690;23.260;2022-07-06T02:08:32;94377.81;;;18.76;100.00
6433;BME280;3249;42.690;23.260;2022-07-06T02:10:58;94377.03;;;18.76;100.00
6433;BME280;3249;42.690;23.260;2022-07-06T02:13:24;94366.34;;;18.72;100.00
6433;BME280;3249;42.690;23.260;2022-07-06T02:15:49;94370.50;;;18.78;100.00
6433;BME280;3249;42.690;23.260;2022-07-06T02:18:15;94381.19;;;18.82;100.00
6433;BME280;3249;42.690;23.260;2022-07-06T02:20:40;94376.50;;;18.79;100.00
6433;BME280;3249;42.690;23.260;2022-07-06T02:23:05;94371.28;;;18.79;100.00
6433;BME280;3249;42.690;23.260;2022-07-06T02:25:31;94374.94;;;18.73;100.00
6433;BME280;3249;42.690;23.260;2022-07-06T02:27:56;94373.91;;;18.79;100.00
6433;BME280;3249;42.690;23.260;2022-07-06T02:30:22;94368.41;;;18.80;100.00
6433;BME280;3249;42.690;23.260;2022-07-06T02:32:47;94377.53;;;18.83;100.00
6433;BME280;3249;42.690;23.260;2022-07-06T02:35:12;94373.13;;;18.73;100.00
6433;BME280;3249;42.690;23.260;2022-07-06T02:37:38;94372.31;;;18.73;100.00
6433;BME280;3249;42.690;23.260;2022-07-06T02:40:04;94377.78;;;18.86;100.00
6433;BME280;3249;42.690;23.260;2022-07-06T02:42:30;94358.75;;;18.76;100.00
6433;BME280;3249;42.690;23.260;2022-07-06T02:44:55;94371.28;;;18.69;100.00
6433;BME280;3249;42.690;23.260;2022-07-06T02:47:21;94370.00;;;18.46;100.00
6433;BME280;3249;42.690;23.260;2022-07-06T02:49:46;94341.84;;;18.28;100.00
6433;BME280;3249;42.690;23.260;2022-07-06T02:52:12;94372.63;;;18.46;100.00
6433;BME280;3249;42.690;23.260;2022-07-06T02:54:37;94377.56;;;18.58;100.00
6433;BME280;3249;42.690;23.260;2022-07-06T02:57:03;94349.66;;;18.33;100.00
6433;BME280;3249;42.690;23.260;2022-07-06T02:59:28;94370.78;;;18.57;100.00
6433;BME280;3249;42.690;23.260;2022-07-06T03:01:54;94379.13;;;18.59;100.00
6433;BME280;3249;42.690;23.260;2022-07-06T03:04:19;94367.41;;;18.56;100.00
6433;BME280;3249;42.690;23.260;2022-07-06T03:06:44;94379.66;;;18.61;100.00
6433;BME280;3249;42.690;23.260;2022-07-06T03:09:10;94384.59;;;18.62;100.00
6433;BME280;3249;42.690;23.260;2022-07-06T03:11:35;94392.44;;;18.72;100.00
6433;BME280;3249;42.690;23.260;2022-07-06T03:14:05;94384.88;;;18.71;100.00
6433;BME280;3249;42.690;23.260;2022-07-06T03:16:31;94398.97;;;18.70;100.00
6433;BME280;3249;42.690;23.260;2022-07-06T03:18:57;94386.41;;;18.82;100.00
6433;BME280;3249;42.690;23.260;2022-07-06T03:21:24;94384.03;;;18.90;100.00
6433;BME280;3249;42.690;23.260;2022-07-06T03:23:49;94389.25;;;19.00;100.00
6433;BME280;3249;42.690;23.260;2022-07-06T03:26:15;94416.59;;;19.18;100.00
6433;BME280;3249;42.690;23.260;2022-07-06T03:28:40;94425.22;;;19.13;100.00
6433;BME280;3249;42.690;23.260;2022-07-06T03:31:05;94424.44;;;19.13;100.00
6433;BME280;3249;42.690;23.260;2022-07-06T03:33:31;94430.19;;;19.15;100.00
6433;BME280;3249;42.690;23.260;2022-07-06T03:35:56;94433.81;;;19.19;100.00
6433;BME280;3249;42.690;23.260;2022-07-06T03:38:22;94432.25;;;19.23;100.00
6433;BME280;3249;42.690;23.260;2022-07-06T03:40:47;94436.94;;;19.31;100.00
6433;BME280;3249;42.690;23.260;2022-07-06T03:43:13;94434.09;;;19.27;100.00
6433;BME280;3249;42.690;23.260;2022-07-06T03:45:38;94426.66;;;19.64;100.00
6433;BME280;3249;42.690;23.260;2022-07-06T03:48:04;94450.22;;;20.13;100.00
6433;BME280;3249;42.690;23.260;2022-07-06T03:50:30;94448.59;;;20.22;100.00
6433;BME280;3249;42.690;23.260;2022-07-06T03:52:55;94452.38;;;20.44;100.00
6433;BME280;3249;42.690;23.260;2022-07-06T03:55:21;94451.94;;;20.66;100.00
6433;BME280;3249;42.690;23.260;2022-07-06T03:57:46;94447.53;;;20.95;100.00
6433;BME280;3249;42.690;23.260;2022-07-06T04:00:12;94471.97;;;21.14;100.00
6433;BME280;3249;42.690;23.260;2022-07-06T04:02:37;94465.88;;;21.23;100.00
6433;BME280;3249;42.690;23.260;2022-07-06T04:05:03;94475.06;;;21.21;100.00
6433;BME280;3249;42.690;23.260;2022-07-06T04:07:29;94479.88;;;21.37;100.00
6433;BME280;3249;42.690;23.260;2022-07-06T04:09:54;94480.78;;;21.51;100.00
6433;BME280;3249;42.690;23.260;2022-07-06T04:12:19;94455.19;;;21.67;100.00
6433;BME280;3249;42.690;23.260;2022-07-06T04:14:45;94475.66;;;22.12;100.00
6433;BME280;3249;42.690;23.260;2022-07-06T04:17:10;94479.38;;;21.59;100.00
6433;BME280;3249;42.690;23.260;2022-07-06T04:19:54;94468.78;;;21.45;100.00
6433;BME280;3249;42.690;23.260;2022-07-06T04:22:19;94478.53;;;21.92;100.00
6433;BME280;3249;42.690;23.260;2022-07-06T04:24:45;94482.69;;;21.93;100.00
6433;BME280;3249;42.690;23.260;2022-07-06T04:27:11;94464.00;;;21.00;100.00
6433;BME280;3249;42.690;23.260;2022-07-06T04:29:36;94487.03;;;21.27;100.00
6433;BME280;3249;42.690;23.260;2022-07-06T04:32:02;94470.09;;;20.86;100.00
6433;BME280;3249;42.690;23.260;2022-07-06T04:34:27;94494.28;;;21.40;100.00
6433;BME280;3249;42.690;23.260;2022-07-06T04:36:53;94493.09;;;21.51;100.00
6433;BME280;3249;42.690;23.260;2022-07-06T04:39:18;94505.44;;;21.22;100.00
6433;BME280;3249;42.690;23.260;2022-07-06T04:41:44;94509.75;;;21.36;100.00
6433;BME280;3249;42.690;23.260;2022-07-06T04:44:09;94509.81;;;20.98;100.00
6433;BME280;3249;42.690;23.260;2022-07-06T04:46:34;94501.34;;;20.72;100.00
6433;BME280;3249;42.690;23.260;2022-07-06T04:49:00;94500.69;;;20.52;100.00
6433;BME280;3249;42.690;23.260;2022-07-06T04:51:25;94522.59;;;20.66;100.00
6433;BME280;3249;42.690;23.260;2022-07-06T04:53:51;94525.41;;;20.31;100.00
6433;BME280;3249;42.690;23.260;2022-07-06T04:56:16;94508.06;;;19.91;100.00
6433;BME280;3249;42.690;23.260;2022-07-06T04:58:42;94520.09;;;19.87;100.00
6433;BME280;3249;42.690;23.260;2022-07-06T05:01:07;94490.69;;;19.52;100.00
6433;BME280;3249;42.690;23.260;2022-07-06T05:03:33;94518.63;;;19.56;100.00
6433;BME280;3249;42.690;23.260;2022-07-06T05:06:04;94493.06;;;19.23;100.00
6433;BME280;3249;42.690;23.260;2022-07-06T05:08:30;94519.13;;;19.53;100.00
6433;BME280;3249;42.690;23.260;2022-07-06T05:10:55;94518.88;;;19.55;100.00
6433;BME280;3249;42.690;23.260;2022-07-06T05:13:20;94523.56;;;19.63;100.00
6433;BME280;3249;42.690;23.260;2022-07-06T05:15:46;94526.97;;;19.63;100.00
6433;BME280;3249;42.690;23.260;2022-07-06T05:18:11;94532.44;;;19.62;100.00
6433;BME280;3249;42.690;23.260;2022-07-06T05:20:37;94532.44;;;19.67;100.00
6433;BME280;3249;42.690;23.260;2022-07-06T05:23:02;94488.09;;;19.42;100.00
6433;BME280;3249;42.690;23.260;2022-07-06T05:25:27;94494.56;;;19.64;100.00
6433;BME280;3249;42.690;23.260;2022-07-06T05:27:53;94547.19;;;20.06;100.00
6433;BME280;3249;42.690;23.260;2022-07-06T05:30:19;94535.66;;;20.17;100.00
6433;BME280;3249;42.690;23.260;2022-07-06T05:32:44;94552.31;;;20.36;100.00
6433;BME280;3249;42.690;23.260;2022-07-06T05:35:10;94549.25;;;20.68;100.00
6433;BME280;3249;42.690;23.260;2022-07-06T05:37:35;94557.53;;;20.85;100.00
6433;BME280;3249;42.690;23.260;2022-07-06T05:40:01;94547.34;;;20.83;100.00
6433;BME280;3249;42.690;23.260;2022-07-06T05:42:26;94541.72;;;21.05;100.00
6433;BME280;3249;42.690;23.260;2022-07-06T05:44:55;94560.16;;;21.52;100.00
6433;BME280;3249;42.690;23.260;2022-07-06T05:47:22;94574.06;;;21.81;100.00
6433;BME280;3249;42.690;23.260;2022-07-06T05:50:06;94568.16;;;21.94;100.00
6433;BME280;3249;42.690;23.260;2022-07-06T05:52:38;94574.06;;;22.04;100.00
6433;BME280;3249;42.690;23.260;2022-07-06T05:55:04;94568.00;;;21.85;100.00
6433;BME280;3249;42.690;23.260;2022-07-06T05:57:29;94571.44;;;21.81;100.00
6433;BME280;3249;42.690;23.260;2022-07-06T05:59:55;94571.69;;;21.51;100.00
6433;BME280;3249;42.690;23.260;2022-07-06T06:02:20;94574.03;;;21.24;100.00
6433;BME280;3249;42.690;23.260;2022-07-06T06:04:46;94569.09;;;21.17;100.00
6433;BME280;3249;42.690;23.260;2022-07-06T06:07:11;94575.66;;;21.15;100.00
6433;BME280;3249;42.690;23.260;2022-07-06T06:09:36;94562.56;;;21.15;100.00
6433;BME280;3249;42.690;23.260;2022-07-06T06:12:02;94568.53;;;21.20;100.00
6433;BME280;3249;42.690;23.260;2022-07-06T06:14:27;94568.00;;;20.85;100.00
6433;BME280;3249;42.690;23.260;2022-07-06T06:16:53;94560.16;;;20.85;100.00
6433;BME280;3249;42.690;23.260;2022-07-06T06:19:18;94563.56;;;20.80;100.00
6433;BME280;3249;42.690;23.260;2022-07-06T06:21:44;94541.25;;;20.54;100.00
6433;BME280;3249;42.690;23.260;2022-07-06T06:24:09;94551.28;;;20.81;100.00
6433;BME280;3249;42.690;23.260;2022-07-06T06:26:34;94530.03;;;20.87;100.00
6433;BME280;3249;42.690;23.260;2022-07-06T06:29:00;94554.66;;;21.25;100.00
6433;BME280;3249;42.690;23.260;2022-07-06T06:31:25;94555.59;;;21.34;100.00
6433;BME280;3249;42.690;23.260;2022-07-06T06:33:50;94550.31;;;21.39;100.00
6433;BME280;3249;42.690;23.260;2022-07-06T06:36:18;94553.03;;;21.29;100.00
6433;BME280;3249;42.690;23.260;2022-07-06T06:38:43;94554.53;;;21.63;100.00
6433;BME280;3249;42.690;23.260;2022-07-06T06:41:08;94559.44;;;21.75;100.00
6433;BME280;3249;42.690;23.260;2022-07-06T06:43:34;94560.84;;;22.15;100.00
6433;BME280;3249;42.690;23.260;2022-07-06T06:45:59;94551.00;;;22.25;100.00
6433;BME280;3249;42.690;23.260;2022-07-06T06:48:25;94552.06;;;22.24;100.00
6433;BME280;3249;42.690;23.260;2022-07-06T06:50:50;94549.63;;;22.09;100.00
6433;BME280;3249;42.690;23.260;2022-07-06T06:53:16;94555.03;;;22.18;100.00
6433;BME280;3249;42.690;23.260;2022-07-06T06:55:41;94559.16;;;22.24;100.00
6433;BME280;3249;42.690;23.260;2022-07-06T06:58:07;94538.16;;;22.24;100.00
6433;BME280;3249;42.690;23.260;2022-07-06T07:00:32;94552.38;;;22.41;100.00
6433;BME280;3249;42.690;23.260;2022-07-06T07:02:58;94548.91;;;22.46;100.00
6433;BME280;3249;42.690;23.260;2022-07-06T07:05:23;94552.31;;;22.46;100.00
6433;BME280;3249;42.690;23.260;2022-07-06T07:07:49;94557.75;;;22.55;100.00
6433;BME280;3249;42.690;23.260;2022-07-06T07:10:14;94559.72;;;22.39;100.00
6433;BME280;3249;42.690;23.260;2022-07-06T07:12:44;94550.59;;;22.37;100.00
6433;BME280;3249;42.690;23.260;2022-07-06T07:15:10;94553.00;;;22.33;100.00
6433;BME280;3249;42.690;23.260;2022-07-06T07:17:36;94552.94;;;22.38;100.00
6433;BME280;3249;42.690;23.260;2022-07-06T07:20:01;94553.06;;;22.52;100.00
6433;BME280;3249;42.690;23.260;2022-07-06T07:22:26;94554.44;;;22.44;100.00
6433;BME280;3249;42.690;23.260;2022-07-06T07:24:52;94559.25;;;22.37;100.00
6433;BME280;3249;42.690;23.260;2022-07-06T07:27:17;94545.06;;;22.38;100.00
6433;BME280;3249;42.690;23.260;2022-07-06T07:29:43;94542.44;;;21.96;100.00
6433;BME280;3249;42.690;23.260;2022-07-06T07:32:08;94541.97;;;21.37;100.00
6433;BME280;3249;42.690;23.260;2022-07-06T07:34:34;94549.22;;;21.45;100.00
6433;BME280;3249;42.690;23.260;2022-07-06T07:36:59;94544.34;;;21.00;100.00
6433;BME280;3249;42.690;23.260;2022-07-06T07:39:24;94544.72;;;21.50;100.00
6433;BME280;3249;42.690;23.260;2022-07-06T07:41:50;94543.78;;;21.93;100.00
6433;BME280;3249;42.690;23.260;2022-07-06T07:44:16;94548.50;;;22.15;100.00
6433;BME280;3249;42.690;23.260;2022-07-06T07:46:41;94553.13;;;22.23;100.00
6433;BME280;3249;42.690;23.260;2022-07-06T07:49:06;94554.13;;;22.51;100.00
6433;BME280;3249;42.690;23.260;2022-07-06T07:51:32;94533.69;;;22.66;100.00
6433;BME280;3249;42.690;23.260;2022-07-06T07:53:58;94532.66;;;22.44;100.00
6433;BME280;3249;42.690;23.260;2022-07-06T07:56:23;94552.56;;;22.68;100.00
6433;BME280;3249;42.690;23.260;2022-07-06T07:58:49;94552.75;;;22.90;100.00
6433;BME280;3249;42.690;23.260;2022-07-06T08:01:14;94541.91;;;22.97;100.00
6433;BME280;3249;42.690;23.260;2022-07-06T08:03:40;94555.25;;;23.00;100.00
6433;BME280;3249;42.690;23.260;2022-07-06T08:06:05;94546.53;;;22.86;100.00
6433;BME280;3249;42.690;23.260;2022-07-06T08:08:31;94553.41;;;22.82;100.00
6433;BME280;3249;42.690;23.260;2022-07-06T08:10:56;94551.91;;;22.95;100.00
6433;BME280;3249;42.690;23.260;2022-07-06T08:13:22;94555.69;;;23.07;100.00
6433;BME280;3249;42.690;23.260;2022-07-06T08:15:47;94565.03;;;23.32;100.00
6433;BME280;3249;42.690;23.260;2022-07-06T08:18:12;94564.34;;;23.40;100.00
6433;BME280;3249;42.690;23.260;2022-07-06T08:20:38;94557.34;;;23.35;100.00
6433;BME280;3249;42.690;23.260;2022-07-06T08:23:04;94550.72;;;22.69;100.00
6433;BME280;3249;42.690;23.260;2022-07-06T08:25:30;94551.28;;;22.84;100.00
6433;BME280;3249;42.690;23.260;2022-07-06T08:27:55;94539.88;;;22.94;100.00
6433;BME280;3249;42.690;23.260;2022-07-06T08:30:20;94559.94;;;23.22;100.00
6433;BME280;3249;42.690;23.260;2022-07-06T08:32:46;94562.28;;;23.55;100.00
6433;BME280;3249;42.690;23.260;2022-07-06T08:35:12;94556.66;;;23.75;100.00
6433;BME280;3249;42.690;23.260;2022-07-06T08:37:37;94552.84;;;23.68;100.00
6433;BME280;3249;42.690;23.260;2022-07-06T08:40:04;94565.44;;;23.84;100.00
6433;BME280;3249;42.690;23.260;2022-07-06T08:42:31;94555.19;;;23.69;100.00
6433;BME280;3249;42.690;23.260;2022-07-06T08:45:02;94560.31;;;23.93;100.00
6433;BME280;3249;42.690;23.260;2022-07-06T08:47:28;94564.97;;;23.82;100.00
6433;BME280;3249;42.690;23.260;2022-07-06T08:49:54;94549.19;;;23.96;100.00
6433;BME280;3249;42.690;23.260;2022-07-06T08:52:22;94559.31;;;24.43;100.00
6433;BME280;3249;42.690;23.260;2022-07-06T08:54:48;94568.03;;;24.79;100.00
6433;BME280;3249;42.690;23.260;2022-07-06T08:57:14;94568.28;;;24.69;100.00
6433;BME280;3249;42.690;23.260;2022-07-06T08:59:40;94565.50;;;24.87;100.00
6433;BME280;3249;42.690;23.260;2022-07-06T09:02:06;94566.72;;;24.41;100.00
6433;BME280;3249;42.690;23.260;2022-07-06T09:04:35;94561.47;;;24.27;100.00
6433;BME280;3249;42.690;23.260;2022-07-06T09:07:00;94565.94;;;24.27;100.00
6433;BME280;3249;42.690;23.260;2022-07-06T09:09:29;94555.72;;;24.25;100.00
6433;BME280;3249;42.690;23.260;2022-07-06T09:11:58;94551.78;;;23.23;100.00
6433;BME280;3249;42.690;23.260;2022-07-06T09:14:23;94523.38;;;23.39;100.00
6433;BME280;3249;42.690;23.260;2022-07-06T09:17:01;94565.25;;;24.08;100.00
6433;BME280;3249;42.690;23.260;2022-07-06T09:19:30;94562.16;;;24.19;100.00
6433;BME280;3249;42.690;23.260;2022-07-06T09:21:55;94562.06;;;24.38;100.00
6433;BME280;3249;42.690;23.260;2022-07-06T09:24:21;94570.13;;;24.41;100.00
6433;BME280;3249;42.690;23.260;2022-07-06T09:26:47;94567.31;;;24.51;100.00
6433;BME280;3249;42.690;23.260;2022-07-06T09:29:13;94569.81;;;24.56;100.00
6433;BME280;3249;42.690;23.260;2022-07-06T09:31:39;94570.78;;;24.60;100.00
6433;BME280;3249;42.690;23.260;2022-07-06T09:34:06;94564.78;;;24.46;100.00
6433;BME280;3249;42.690;23.260;2022-07-06T09:36:45;94581.03;;;24.75;100.00
6433;BME280;3249;42.690;23.260;2022-07-06T09:39:24;94577.91;;;24.73;100.00
6433;BME280;3249;42.690;23.260;2022-07-06T09:41:55;94561.25;;;23.83;100.00
6433;BME280;3249;42.690;23.260;2022-07-06T09:44:25;94554.56;;;24.18;100.00
6433;BME280;3249;42.690;23.260;2022-07-06T09:46:52;94541.56;;;24.48;100.00
6433;BME280;3249;42.690;23.260;2022-07-06T09:49:19;94557.09;;;24.85;100.00
6433;BME280;3249;42.690;23.260;2022-07-06T09:51:51;94554.06;;;25.14;100.00
6433;BME280;3249;42.690;23.260;2022-07-06T09:54:17;94534.81;;;25.05;100.00
6433;BME280;3249;42.690;23.260;2022-07-06T09:56:44;94555.09;;;25.04;100.00
6433;BME280;3249;42.690;23.260;2022-07-06T09:59:14;94551.19;;;25.02;100.00
6433;BME280;3249;42.690;23.260;2022-07-06T10:01:41;94543.50;;;24.43;100.00
6433;BME280;3249;42.690;23.260;2022-07-06T10:04:08;94561.44;;;24.54;100.00
6433;BME280;3249;42.690;23.260;2022-07-06T10:06:34;94559.25;;;24.83;100.00
6433;BME280;3249;42.690;23.260;2022-07-06T10:09:00;94552.53;;;24.77;100.00
6433;BME280;3249;42.690;23.260;2022-07-06T10:11:28;94550.28;;;24.84;100.00
6433;BME280;3249;42.690;23.260;2022-07-06T10:13:56;94548.59;;;24.53;100.00
6433;BME280;3249;42.690;23.260;2022-07-06T10:16:25;94553.06;;;24.66;100.00
6433;BME280;3249;42.690;23.260;2022-07-06T10:18:52;94515.56;;;24.82;100.00
6433;BME280;3249;42.690;23.260;2022-07-06T10:21:21;94546.81;;;24.97;100.00
6433;BME280;3249;42.690;23.260;2022-07-06T10:23:48;94547.69;;;24.57;100.00
6433;BME280;3249;42.690;23.260;2022-07-06T10:26:16;94535.75;;;24.11;100.00
6433;BME280;3249;42.690;23.260;2022-07-06T10:28:42;94532.69;;;24.44;100.00
6433;BME280;3249;42.690;23.260;2022-07-06T10:31:08;94541.84;;;24.47;100.00
6433;BME280;3249;42.690;23.260;2022-07-06T10:33:35;94533.22;;;24.19;100.00
6433;BME280;3249;42.690;23.260;2022-07-06T10:36:02;94538.94;;;24.48;100.00
6433;BME280;3249;42.690;23.260;2022-07-06T10:38:33;94528.09;;;24.63;100.00
6433;BME280;3249;42.690;23.260;2022-07-06T10:41:04;94536.25;;;24.75;100.00
6433;BME280;3249;42.690;23.260;2022-07-06T10:43:42;94535.31;;;24.93;100.00
6433;BME280;3249;42.690;23.260;2022-07-06T10:46:18;94522.88;;;25.07;100.00
6433;BME280;3249;42.690;23.260;2022-07-06T10:48:48;94532.38;;;24.59;100.00
6433;BME280;3249;42.690;23.260;2022-07-06T10:51:24;94524.28;;;24.69;100.00
6433;BME280;3249;42.690;23.260;2022-07-06T10:54:01;94534.81;;;25.05;100.00
6433;BME280;3249;42.690;23.260;2022-07-06T10:56:36;94543.59;;;25.00;100.00
6433;BME280;3249;42.690;23.260;2022-07-06T10:59:02;94532.09;;;24.74;100.00
6433;BME280;3249;42.690;23.260;2022-07-06T11:01:34;94542.81;;;25.00;100.00
6433;BME280;3249;42.690;23.260;2022-07-06T11:06:26;94540.19;;;24.64;100.00
6433;BME280;3249;42.690;23.260;2022-07-06T11:16:30;94525.72;;;24.26;100.00
6433;BME280;3249;42.690;23.260;2022-07-06T11:21:51;94507.75;;;24.28;100.00
6433;BME280;3249;42.690;23.260;2022-07-06T11:24:22;94524.09;;;24.52;100.00
6433;BME280;3249;42.690;23.260;2022-07-06T11:26:49;94526.56;;;24.49;100.00
6433;BME280;3249;42.690;23.260;2022-07-06T11:29:17;94521.25;;;24.76;100.00
6433;BME280;3249;42.690;23.260;2022-07-06T11:31:45;94524.78;;;24.71;98.97
6433;BME280;3249;42.690;23.260;2022-07-06T11:34:14;94514.94;;;24.85;100.00
6433;BME280;3249;42.690;23.260;2022-07-06T11:36:42;94508.19;;;24.71;99.54
6433;BME280;3249;42.690;23.260;2022-07-06T11:39:08;94519.63;;;24.88;100.00
6433;BME280;3249;42.690;23.260;2022-07-06T11:41:34;94504.56;;;24.31;100.00
6433;BME280;3249;42.690;23.260;2022-07-06T11:44:00;94491.50;;;24.75;100.00
6433;BME280;3249;42.690;23.260;2022-07-06T11:46:30;94513.06;;;25.21;99.38
6433;BME280;3249;42.690;23.260;2022-07-06T11:48:58;94511.22;;;25.44;94.62
6433;BME280;3249;42.690;23.260;2022-07-06T11:51:26;94503.97;;;25.05;100.00
6433;BME280;3249;42.690;23.260;2022-07-06T11:53:54;94503.25;;;25.13;100.00
6433;BME280;3249;42.690;23.260;2022-07-06T11:56:20;94500.38;;;25.54;98.18
6433;BME280;3249;42.690;23.260;2022-07-06T11:58:59;94499.00;;;25.56;95.02
6433;BME280;3249;42.690;23.260;2022-07-06T12:01:26;94498.66;;;25.88;95.64
6433;BME280;3249;42.690;23.260;2022-07-06T12:03:56;94502.06;;;26.20;92.72
6433;BME280;3249;42.690;23.260;2022-07-06T12:06:24;94483.28;;;25.73;91.55
6433;BME280;3249;42.690;23.260;2022-07-06T12:08:52;94504.66;;;25.19;100.00
6433;BME280;3249;42.690;23.260;2022-07-06T12:11:23;94491.97;;;25.82;97.20
6433;BME280;3249;42.690;23.260;2022-07-06T12:13:54;94500.16;;;26.03;90.99
6433;BME280;3249;42.690;23.260;2022-07-06T12:16:21;94507.16;;;25.77;94.07
6433;BME280;3249;42.690;23.260;2022-07-06T12:18:49;94499.88;;;25.43;97.22
6433;BME280;3249;42.690;23.260;2022-07-06T12:21:18;94506.16;;;24.90;100.00
6433;BME280;3249;42.690;23.260;2022-07-06T12:23:48;94495.34;;;25.13;100.00
6433;BME280;3249;42.690;23.260;2022-07-06T12:26:15;94504.66;;;25.72;93.02
6433;BME280;3249;42.690;23.260;2022-07-06T12:28:42;94490.88;;;25.44;97.59
6433;BME280;3249;42.690;23.260;2022-07-06T12:31:09;94496.88;;;25.14;96.59
6433;BME280;3249;42.690;23.260;2022-07-06T12:33:35;94503.72;;;25.15;95.77
6433;BME280;3249;42.690;23.260;2022-07-06T12:36:14;94496.25;;;25.61;91.82
6433;BME280;3249;42.690;23.260;2022-07-06T12:38:47;94488.94;;;25.28;97.54
6433;BME280;3249;42.690;23.260;2022-07-06T12:41:33;94484.56;;;25.54;91.64
6433;BME280;3249;42.690;23.260;2022-07-06T12:44:09;94496.41;;;25.12;97.67
6433;BME280;3249;42.690;23.260;2022-07-06T12:46:39;94475.69;;;24.97;100.00
6433;BME280;3249;42.690;23.260;2022-07-06T12:49:22;94481.09;;;24.70;100.00
6433;BME280;3249;42.690;23.260;2022-07-06T12:54:47;94465.09;;;24.53;100.00
6433;BME280;3249;42.690;23.260;2022-07-06T12:57:20;94466.53;;;24.73;100.00
6433;BME280;3249;42.690;23.260;2022-07-06T12:59:54;94475.81;;;25.14;99.34
6433;BME280;3249;42.690;23.260;2022-07-06T13:02:33;94465.63;;;25.21;96.69
6433;BME280;3249;42.690;23.260;2022-07-06T13:05:13;94464.75;;;25.04;91.65
6433;BME280;3249;42.690;23.260;2022-07-06T13:07:44;94466.16;;;25.32;89.85
6433;BME280;3249;42.690;23.260;2022-07-06T13:10:11;94466.81;;;25.37;90.95
6433;BME280;3249;42.690;23.260;2022-07-06T13:12:37;94471.63;;;24.91;93.44
6433;BME280;3249;42.690;23.260;2022-07-06T13:15:05;94444.19;;;25.14;92.03